This is the latest recevied weather packets stored in our database for station/object W1CAT. If no packets are shown the sender has not sent any weather packets the latest 10 day(s).
| Time | Temp. | Humidity | Pressure | Rain* | Wind** | Luminosity | Snow |
|---|---|---|---|---|---|---|---|
| 1777818267 | 6.11° C | 59% | - | 0 mm | - | - | - |
| 1777817963 | 5° C | 63% | - | 0 mm | - | - | - |
| 1777817660 | 5° C | 61% | - | 0 mm | - | - | - |
| 1777817357 | 4.44° C | 66% | - | 0 mm | - | - | - |
| 1777817054 | 3.33° C | 70% | - | 0 mm | - | - | - |
| 1777816744 | 2.78° C | 72% | - | 0 mm | - | - | - |
| 1777816443 | 2.22° C | 75% | - | 0 mm | - | - | - |
| 1777816140 | 1.67° C | 78% | - | 0 mm | - | - | - |
| 1777815838 | 1.67° C | 77% | - | 0 mm | - | - | - |
| 1777815535 | 1.67° C | 77% | - | 0 mm | - | - | - |
| 1777815232 | 1.11° C | 77% | - | 0 mm | - | - | - |
| 1777814928 | 1.11° C | 78% | - | 0 mm | - | - | - |
| 1777814625 | 1.11° C | 79% | - | 0 mm | - | - | - |
| 1777814322 | 1.11° C | 79% | - | 0 mm | - | - | - |
| 1777814018 | 0.56° C | 81% | - | 0 mm | - | - | - |
| 1777813715 | 0.56° C | 82% | - | 0 mm | - | - | - |
| 1777813412 | 0.56° C | 82% | - | 0 mm | - | - | - |
| 1777813110 | 0° C | 82% | - | 0 mm | - | - | - |
| 1777812808 | 0° C | 82% | - | 0 mm | - | - | - |
| 1777812504 | 0° C | 82% | - | 0 mm | - | - | - |
| 1777812202 | 0° C | 82% | - | 0 mm | - | - | - |
| 1777811900 | 0° C | 83% | - | 0 mm | - | - | - |
| 1777811599 | 0° C | 83% | - | 0 mm | - | - | - |
| 1777811294 | -0.56° C | 84% | - | 0 mm | - | - | - |
| 1777810992 | -0.56° C | 84% | - | 0 mm | - | - | - |
* Rain latest hour (hover to see other rain measurements)
** Current wind speed in m/s (hover to see current wind gust speed)